sensor_id;sensor_type;location;lat;lon;timestamp;P1;durP1;ratioP1;P2;durP2;ratioP2
29500;SDS011;16450;50.288;10.966;2023-12-20T00:01:27;8.97;;;6.17;;
29500;SDS011;16450;50.288;10.966;2023-12-20T00:04:29;8.50;;;5.53;;
29500;SDS011;16450;50.288;10.966;2023-12-20T00:07:31;9.27;;;5.73;;
29500;SDS011;16450;50.288;10.966;2023-12-20T00:10:33;9.67;;;5.50;;
29500;SDS011;16450;50.288;10.966;2023-12-20T00:13:34;9.13;;;5.70;;
29500;SDS011;16450;50.288;10.966;2023-12-20T00:16:36;8.57;;;5.33;;
29500;SDS011;16450;50.288;10.966;2023-12-20T00:19:38;9.10;;;5.83;;
29500;SDS011;16450;50.288;10.966;2023-12-20T00:22:40;8.60;;;4.70;;
29500;SDS011;16450;50.288;10.966;2023-12-20T00:25:42;7.90;;;4.93;;
29500;SDS011;16450;50.288;10.966;2023-12-20T00:28:44;8.90;;;5.53;;
29500;SDS011;16450;50.288;10.966;2023-12-20T00:31:45;8.93;;;5.30;;
29500;SDS011;16450;50.288;10.966;2023-12-20T00:34:48;9.73;;;5.70;;
29500;SDS011;16450;50.288;10.966;2023-12-20T00:37:49;8.57;;;5.70;;
29500;SDS011;16450;50.288;10.966;2023-12-20T00:40:51;8.97;;;5.33;;
29500;SDS011;16450;50.288;10.966;2023-12-20T00:43:53;9.93;;;5.40;;
29500;SDS011;16450;50.288;10.966;2023-12-20T00:46:55;9.13;;;4.70;;
29500;SDS011;16450;50.288;10.966;2023-12-20T00:49:57;8.10;;;4.93;;
29500;SDS011;16450;50.288;10.966;2023-12-20T00:53:00;8.33;;;4.90;;
29500;SDS011;16450;50.288;10.966;2023-12-20T00:56:01;8.03;;;4.83;;
29500;SDS011;16450;50.288;10.966;2023-12-20T00:59:03;6.60;;;4.40;;
29500;SDS011;16450;50.288;10.966;2023-12-20T01:02:05;6.73;;;4.40;;
29500;SDS011;16450;50.288;10.966;2023-12-20T01:05:07;6.07;;;4.37;;
29500;SDS011;16450;50.288;10.966;2023-12-20T01:08:10;7.37;;;4.30;;
29500;SDS011;16450;50.288;10.966;2023-12-20T01:11:12;7.17;;;4.50;;
29500;SDS011;16450;50.288;10.966;2023-12-20T01:14:14;6.93;;;4.60;;
29500;SDS011;16450;50.288;10.966;2023-12-20T01:17:16;7.23;;;4.50;;
29500;SDS011;16450;50.288;10.966;2023-12-20T01:20:18;6.27;;;4.30;;
29500;SDS011;16450;50.288;10.966;2023-12-20T01:23:21;5.87;;;4.00;;
29500;SDS011;16450;50.288;10.966;2023-12-20T01:26:23;5.90;;;4.03;;
29500;SDS011;16450;50.288;10.966;2023-12-20T01:29:25;6.00;;;3.47;;
29500;SDS011;16450;50.288;10.966;2023-12-20T01:32:27;4.93;;;3.63;;
29500;SDS011;16450;50.288;10.966;2023-12-20T01:35:28;5.07;;;3.47;;
29500;SDS011;16450;50.288;10.966;2023-12-20T01:38:30;4.07;;;3.17;;
29500;SDS011;16450;50.288;10.966;2023-12-20T01:41:32;4.80;;;3.20;;
29500;SDS011;16450;50.288;10.966;2023-12-20T01:44:34;5.17;;;3.23;;
29500;SDS011;16450;50.288;10.966;2023-12-20T01:47:36;3.87;;;2.93;;
29500;SDS011;16450;50.288;10.966;2023-12-20T01:50:38;4.40;;;2.87;;
29500;SDS011;16450;50.288;10.966;2023-12-20T01:53:41;3.93;;;2.90;;
29500;SDS011;16450;50.288;10.966;2023-12-20T01:56:44;4.73;;;2.77;;
29500;SDS011;16450;50.288;10.966;2023-12-20T01:59:46;3.30;;;2.43;;
29500;SDS011;16450;50.288;10.966;2023-12-20T02:02:48;3.90;;;2.20;;
29500;SDS011;16450;50.288;10.966;2023-12-20T02:05:51;3.73;;;2.57;;
29500;SDS011;16450;50.288;10.966;2023-12-20T02:08:54;3.47;;;2.30;;
29500;SDS011;16450;50.288;10.966;2023-12-20T02:11:56;2.40;;;1.90;;
29500;SDS011;16450;50.288;10.966;2023-12-20T02:14:58;3.07;;;2.30;;
29500;SDS011;16450;50.288;10.966;2023-12-20T02:17:59;2.70;;;2.30;;
29500;SDS011;16450;50.288;10.966;2023-12-20T02:21:03;5.20;;;2.40;;
29500;SDS011;16450;50.288;10.966;2023-12-20T02:24:06;4.07;;;2.60;;
29500;SDS011;16450;50.288;10.966;2023-12-20T02:27:08;2.80;;;2.20;;
29500;SDS011;16450;50.288;10.966;2023-12-20T02:30:10;4.03;;;2.13;;
29500;SDS011;16450;50.288;10.966;2023-12-20T02:33:12;2.87;;;2.23;;
29500;SDS011;16450;50.288;10.966;2023-12-20T02:36:16;2.77;;;1.93;;
29500;SDS011;16450;50.288;10.966;2023-12-20T02:39:18;3.47;;;2.43;;
29500;SDS011;16450;50.288;10.966;2023-12-20T02:42:21;3.50;;;2.20;;
29500;SDS011;16450;50.288;10.966;2023-12-20T02:45:22;2.80;;;1.70;;
29500;SDS011;16450;50.288;10.966;2023-12-20T02:48:24;4.63;;;1.80;;
29500;SDS011;16450;50.288;10.966;2023-12-20T02:51:26;2.10;;;1.60;;
29500;SDS011;16450;50.288;10.966;2023-12-20T02:54:28;1.90;;;1.63;;
29500;SDS011;16450;50.288;10.966;2023-12-20T02:57:30;2.60;;;1.87;;
29500;SDS011;16450;50.288;10.966;2023-12-20T03:00:33;3.30;;;1.60;;
29500;SDS011;16450;50.288;10.966;2023-12-20T03:03:35;2.00;;;1.63;;
29500;SDS011;16450;50.288;10.966;2023-12-20T03:06:37;2.13;;;1.70;;
29500;SDS011;16450;50.288;10.966;2023-12-20T03:09:39;3.10;;;1.40;;
29500;SDS011;16450;50.288;10.966;2023-12-20T03:13:01;1.50;;;1.40;;
29500;SDS011;16450;50.288;10.966;2023-12-20T03:16:12;2.00;;;1.63;;
29500;SDS011;16450;50.288;10.966;2023-12-20T03:19:15;3.50;;;1.50;;
29500;SDS011;16450;50.288;10.966;2023-12-20T03:22:18;1.47;;;1.30;;
29500;SDS011;16450;50.288;10.966;2023-12-20T03:25:19;2.43;;;1.30;;
29500;SDS011;16450;50.288;10.966;2023-12-20T03:28:22;1.27;;;1.17;;
29500;SDS011;16450;50.288;10.966;2023-12-20T03:31:24;1.90;;;1.20;;
29500;SDS011;16450;50.288;10.966;2023-12-20T03:34:26;1.50;;;1.20;;
29500;SDS011;16450;50.288;10.966;2023-12-20T03:37:28;2.20;;;1.27;;
29500;SDS011;16450;50.288;10.966;2023-12-20T03:40:30;1.53;;;1.20;;
29500;SDS011;16450;50.288;10.966;2023-12-20T03:43:32;1.43;;;1.20;;
29500;SDS011;16450;50.288;10.966;2023-12-20T03:46:33;1.70;;;1.30;;
29500;SDS011;16450;50.288;10.966;2023-12-20T03:49:35;1.57;;;1.23;;
29500;SDS011;16450;50.288;10.966;2023-12-20T03:52:38;2.03;;;1.23;;
29500;SDS011;16450;50.288;10.966;2023-12-20T03:55:40;2.17;;;1.60;;
29500;SDS011;16450;50.288;10.966;2023-12-20T03:58:42;2.40;;;1.17;;
29500;SDS011;16450;50.288;10.966;2023-12-20T04:01:44;3.30;;;1.27;;
29500;SDS011;16450;50.288;10.966;2023-12-20T04:04:46;2.97;;;1.43;;
29500;SDS011;16450;50.288;10.966;2023-12-20T04:07:48;1.30;;;1.20;;
29500;SDS011;16450;50.288;10.966;2023-12-20T04:10:52;1.20;;;1.10;;
29500;SDS011;16450;50.288;10.966;2023-12-20T04:13:54;3.00;;;1.40;;
29500;SDS011;16450;50.288;10.966;2023-12-20T04:16:56;2.03;;;1.03;;
29500;SDS011;16450;50.288;10.966;2023-12-20T04:19:58;1.60;;;1.20;;
29500;SDS011;16450;50.288;10.966;2023-12-20T04:23:00;1.80;;;1.40;;
29500;SDS011;16450;50.288;10.966;2023-12-20T04:26:02;1.30;;;1.20;;
29500;SDS011;16450;50.288;10.966;2023-12-20T04:29:04;1.70;;;1.30;;
29500;SDS011;16450;50.288;10.966;2023-12-20T04:32:06;2.00;;;1.23;;
29500;SDS011;16450;50.288;10.966;2023-12-20T04:35:07;1.93;;;1.57;;
29500;SDS011;16450;50.288;10.966;2023-12-20T04:38:10;2.77;;;1.77;;
29500;SDS011;16450;50.288;10.966;2023-12-20T04:41:11;2.00;;;1.60;;
29500;SDS011;16450;50.288;10.966;2023-12-20T04:44:17;1.73;;;1.60;;
29500;SDS011;16450;50.288;10.966;2023-12-20T04:47:18;2.83;;;2.30;;
29500;SDS011;16450;50.288;10.966;2023-12-20T04:50:20;4.13;;;2.67;;
29500;SDS011;16450;50.288;10.966;2023-12-20T04:53:23;2.40;;;2.03;;
29500;SDS011;16450;50.288;10.966;2023-12-20T04:56:24;4.27;;;2.90;;
29500;SDS011;16450;50.288;10.966;2023-12-20T04:59:26;2.53;;;2.30;;
29500;SDS011;16450;50.288;10.966;2023-12-20T05:02:28;2.33;;;2.00;;
29500;SDS011;16450;50.288;10.966;2023-12-20T05:05:30;2.60;;;2.03;;
29500;SDS011;16450;50.288;10.966;2023-12-20T05:08:32;2.30;;;1.80;;
29500;SDS011;16450;50.288;10.966;2023-12-20T05:11:34;2.30;;;2.10;;
29500;SDS011;16450;50.288;10.966;2023-12-20T05:14:36;3.17;;;2.50;;
29500;SDS011;16450;50.288;10.966;2023-12-20T05:17:37;3.97;;;2.40;;
29500;SDS011;16450;50.288;10.966;2023-12-20T05:20:40;2.57;;;2.20;;
29500;SDS011;16450;50.288;10.966;2023-12-20T05:23:42;2.93;;;2.53;;
29500;SDS011;16450;50.288;10.966;2023-12-20T05:26:43;2.93;;;2.50;;
29500;SDS011;16450;50.288;10.966;2023-12-20T05:29:45;3.50;;;2.80;;
29500;SDS011;16450;50.288;10.966;2023-12-20T05:32:47;5.10;;;2.90;;
29500;SDS011;16450;50.288;10.966;2023-12-20T05:35:49;4.00;;;2.60;;
29500;SDS011;16450;50.288;10.966;2023-12-20T05:38:51;2.97;;;2.53;;
29500;SDS011;16450;50.288;10.966;2023-12-20T05:41:53;3.60;;;2.77;;
29500;SDS011;16450;50.288;10.966;2023-12-20T05:44:55;3.60;;;2.90;;
29500;SDS011;16450;50.288;10.966;2023-12-20T05:47:59;3.70;;;3.13;;
29500;SDS011;16450;50.288;10.966;2023-12-20T05:51:01;5.13;;;2.87;;
29500;SDS011;16450;50.288;10.966;2023-12-20T05:54:03;3.03;;;2.57;;
29500;SDS011;16450;50.288;10.966;2023-12-20T05:57:05;4.37;;;2.80;;
29500;SDS011;16450;50.288;10.966;2023-12-20T06:00:08;3.57;;;2.80;;
29500;SDS011;16450;50.288;10.966;2023-12-20T06:03:10;3.93;;;3.10;;
29500;SDS011;16450;50.288;10.966;2023-12-20T06:06:12;4.03;;;3.20;;
29500;SDS011;16450;50.288;10.966;2023-12-20T06:09:17;3.67;;;3.27;;
29500;SDS011;16450;50.288;10.966;2023-12-20T06:12:19;4.00;;;3.13;;
29500;SDS011;16450;50.288;10.966;2023-12-20T06:15:21;5.93;;;3.70;;
29500;SDS011;16450;50.288;10.966;2023-12-20T06:18:23;3.47;;;3.17;;
29500;SDS011;16450;50.288;10.966;2023-12-20T06:21:25;3.50;;;3.20;;
29500;SDS011;16450;50.288;10.966;2023-12-20T06:24:27;10.27;;;3.43;;
29500;SDS011;16450;50.288;10.966;2023-12-20T06:27:29;7.87;;;3.20;;
29500;SDS011;16450;50.288;10.966;2023-12-20T06:30:33;4.07;;;3.10;;
29500;SDS011;16450;50.288;10.966;2023-12-20T06:33:35;4.30;;;3.40;;
29500;SDS011;16450;50.288;10.966;2023-12-20T06:36:37;4.17;;;3.33;;
29500;SDS011;16450;50.288;10.966;2023-12-20T06:39:39;4.60;;;3.20;;
29500;SDS011;16450;50.288;10.966;2023-12-20T06:42:41;4.87;;;3.93;;
29500;SDS011;16450;50.288;10.966;2023-12-20T06:45:55;5.80;;;3.93;;
29500;SDS011;16450;50.288;10.966;2023-12-20T06:48:56;8.60;;;4.40;;
29500;SDS011;16450;50.288;10.966;2023-12-20T06:51:59;4.23;;;3.43;;
29500;SDS011;16450;50.288;10.966;2023-12-20T06:55:01;4.73;;;3.57;;
29500;SDS011;16450;50.288;10.966;2023-12-20T06:58:03;5.30;;;3.23;;
29500;SDS011;16450;50.288;10.966;2023-12-20T07:01:05;5.43;;;3.70;;
29500;SDS011;16450;50.288;10.966;2023-12-20T07:04:15;4.43;;;2.77;;
29500;SDS011;16450;50.288;10.966;2023-12-20T07:07:22;6.57;;;3.03;;
29500;SDS011;16450;50.288;10.966;2023-12-20T07:10:25;5.07;;;3.10;;
29500;SDS011;16450;50.288;10.966;2023-12-20T07:13:27;3.97;;;2.87;;
29500;SDS011;16450;50.288;10.966;2023-12-20T07:16:29;4.97;;;3.00;;
29500;SDS011;16450;50.288;10.966;2023-12-20T07:19:31;9.37;;;4.00;;
29500;SDS011;16450;50.288;10.966;2023-12-20T07:22:33;6.33;;;4.10;;
29500;SDS011;16450;50.288;10.966;2023-12-20T07:25:36;5.30;;;3.20;;
29500;SDS011;16450;50.288;10.966;2023-12-20T07:28:38;5.57;;;3.90;;
29500;SDS011;16450;50.288;10.966;2023-12-20T07:31:39;8.37;;;3.97;;
29500;SDS011;16450;50.288;10.966;2023-12-20T07:34:41;7.07;;;4.03;;
29500;SDS011;16450;50.288;10.966;2023-12-20T07:37:43;8.20;;;4.53;;
29500;SDS011;16450;50.288;10.966;2023-12-20T07:40:46;7.77;;;4.27;;
29500;SDS011;16450;50.288;10.966;2023-12-20T07:43:48;6.83;;;3.97;;
29500;SDS011;16450;50.288;10.966;2023-12-20T07:46:50;7.63;;;4.60;;
29500;SDS011;16450;50.288;10.966;2023-12-20T07:49:52;6.77;;;4.30;;
29500;SDS011;16450;50.288;10.966;2023-12-20T07:52:54;7.77;;;4.57;;
29500;SDS011;16450;50.288;10.966;2023-12-20T07:55:56;8.47;;;4.70;;
29500;SDS011;16450;50.288;10.966;2023-12-20T07:58:58;6.37;;;4.57;;
29500;SDS011;16450;50.288;10.966;2023-12-20T08:02:01;7.30;;;4.40;;
29500;SDS011;16450;50.288;10.966;2023-12-20T08:05:03;11.13;;;5.40;;
29500;SDS011;16450;50.288;10.966;2023-12-20T08:08:05;8.33;;;5.07;;
29500;SDS011;16450;50.288;10.966;2023-12-20T08:11:08;11.50;;;4.77;;
29500;SDS011;16450;50.288;10.966;2023-12-20T08:14:10;11.53;;;5.67;;
29500;SDS011;16450;50.288;10.966;2023-12-20T08:17:11;8.17;;;5.33;;
29500;SDS011;16450;50.288;10.966;2023-12-20T08:20:13;11.97;;;5.50;;
29500;SDS011;16450;50.288;10.966;2023-12-20T08:23:23;9.67;;;5.30;;
29500;SDS011;16450;50.288;10.966;2023-12-20T08:26:28;10.43;;;5.67;;
29500;SDS011;16450;50.288;10.966;2023-12-20T08:29:30;12.90;;;5.80;;
29500;SDS011;16450;50.288;10.966;2023-12-20T08:32:32;10.43;;;6.03;;
29500;SDS011;16450;50.288;10.966;2023-12-20T08:35:34;11.03;;;6.63;;
29500;SDS011;16450;50.288;10.966;2023-12-20T08:38:37;11.60;;;6.73;;
29500;SDS011;16450;50.288;10.966;2023-12-20T08:41:38;12.47;;;6.27;;
29500;SDS011;16450;50.288;10.966;2023-12-20T08:44:40;11.53;;;6.60;;
29500;SDS011;16450;50.288;10.966;2023-12-20T08:47:42;10.30;;;6.13;;
29500;SDS011;16450;50.288;10.966;2023-12-20T08:50:46;9.20;;;5.90;;
29500;SDS011;16450;50.288;10.966;2023-12-20T08:53:50;10.63;;;5.20;;
29500;SDS011;16450;50.288;10.966;2023-12-20T08:56:52;9.83;;;5.43;;
29500;SDS011;16450;50.288;10.966;2023-12-20T08:59:54;10.03;;;5.30;;
29500;SDS011;16450;50.288;10.966;2023-12-20T09:02:55;11.07;;;5.90;;
29500;SDS011;16450;50.288;10.966;2023-12-20T09:05:57;8.50;;;5.83;;
29500;SDS011;16450;50.288;10.966;2023-12-20T09:08:59;9.70;;;5.93;;
29500;SDS011;16450;50.288;10.966;2023-12-20T09:12:01;9.87;;;5.60;;
29500;SDS011;16450;50.288;10.966;2023-12-20T09:15:03;9.27;;;5.80;;
29500;SDS011;16450;50.288;10.966;2023-12-20T09:18:05;11.70;;;6.00;;
29500;SDS011;16450;50.288;10.966;2023-12-20T09:21:07;13.73;;;6.00;;
29500;SDS011;16450;50.288;10.966;2023-12-20T09:24:09;11.10;;;5.80;;
29500;SDS011;16450;50.288;10.966;2023-12-20T09:27:11;9.80;;;5.80;;
29500;SDS011;16450;50.288;10.966;2023-12-20T09:30:15;10.50;;;5.50;;
29500;SDS011;16450;50.288;10.966;2023-12-20T09:33:27;9.70;;;5.20;;
29500;SDS011;16450;50.288;10.966;2023-12-20T09:36:30;8.70;;;5.27;;
29500;SDS011;16450;50.288;10.966;2023-12-20T09:39:37;8.10;;;4.97;;
29500;SDS011;16450;50.288;10.966;2023-12-20T09:46:00;11.67;;;4.90;;
29500;SDS011;16450;50.288;10.966;2023-12-20T09:49:04;11.93;;;4.70;;
29500;SDS011;16450;50.288;10.966;2023-12-20T09:52:07;8.60;;;4.37;;
29500;SDS011;16450;50.288;10.966;2023-12-20T09:55:11;12.23;;;4.57;;
29500;SDS011;16450;50.288;10.966;2023-12-20T09:58:14;9.07;;;4.20;;
29500;SDS011;16450;50.288;10.966;2023-12-20T10:01:16;8.30;;;3.57;;
29500;SDS011;16450;50.288;10.966;2023-12-20T10:04:19;10.37;;;4.00;;
29500;SDS011;16450;50.288;10.966;2023-12-20T10:07:30;7.10;;;3.60;;
29500;SDS011;16450;50.288;10.966;2023-12-20T10:10:33;8.17;;;3.50;;
29500;SDS011;16450;50.288;10.966;2023-12-20T10:13:48;6.87;;;3.20;;
29500;SDS011;16450;50.288;10.966;2023-12-20T10:16:51;11.43;;;3.83;;
29500;SDS011;16450;50.288;10.966;2023-12-20T10:19:53;9.30;;;3.53;;
29500;SDS011;16450;50.288;10.966;2023-12-20T10:22:55;10.10;;;3.73;;
29500;SDS011;16450;50.288;10.966;2023-12-20T10:25:58;7.90;;;3.00;;
29500;SDS011;16450;50.288;10.966;2023-12-20T10:29:01;9.00;;;3.47;;
29500;SDS011;16450;50.288;10.966;2023-12-20T10:32:21;8.17;;;2.90;;
29500;SDS011;16450;50.288;10.966;2023-12-20T10:35:28;5.27;;;3.13;;
29500;SDS011;16450;50.288;10.966;2023-12-20T10:38:29;7.43;;;3.13;;
29500;SDS011;16450;50.288;10.966;2023-12-20T10:41:32;10.00;;;3.37;;
29500;SDS011;16450;50.288;10.966;2023-12-20T10:44:34;6.93;;;3.20;;
29500;SDS011;16450;50.288;10.966;2023-12-20T10:47:36;7.67;;;2.93;;
29500;SDS011;16450;50.288;10.966;2023-12-20T10:50:41;10.53;;;2.77;;
29500;SDS011;16450;50.288;10.966;2023-12-20T10:53:43;7.17;;;2.67;;
29500;SDS011;16450;50.288;10.966;2023-12-20T10:56:48;10.33;;;3.90;;
29500;SDS011;16450;50.288;10.966;2023-12-20T10:59:53;9.73;;;3.23;;
29500;SDS011;16450;50.288;10.966;2023-12-20T11:02:58;6.83;;;2.80;;
29500;SDS011;16450;50.288;10.966;2023-12-20T11:06:08;6.73;;;2.90;;
29500;SDS011;16450;50.288;10.966;2023-12-20T11:09:25;9.43;;;3.10;;
29500;SDS011;16450;50.288;10.966;2023-12-20T11:12:44;7.47;;;3.30;;
29500;SDS011;16450;50.288;10.966;2023-12-20T11:15:50;5.43;;;3.23;;
29500;SDS011;16450;50.288;10.966;2023-12-20T11:18:52;9.00;;;3.83;;
29500;SDS011;16450;50.288;10.966;2023-12-20T11:21:54;9.23;;;2.73;;
29500;SDS011;16450;50.288;10.966;2023-12-20T11:25:06;6.23;;;3.13;;
29500;SDS011;16450;50.288;10.966;2023-12-20T11:28:11;7.50;;;2.90;;
29500;SDS011;16450;50.288;10.966;2023-12-20T11:31:14;6.23;;;2.70;;
29500;SDS011;16450;50.288;10.966;2023-12-20T11:34:16;5.23;;;2.30;;
29500;SDS011;16450;50.288;10.966;2023-12-20T11:37:19;4.37;;;2.30;;
29500;SDS011;16450;50.288;10.966;2023-12-20T11:40:22;5.67;;;2.37;;
29500;SDS011;16450;50.288;10.966;2023-12-20T11:43:58;8.23;;;2.93;;
29500;SDS011;16450;50.288;10.966;2023-12-20T11:46:55;4.40;;;2.30;;
29500;SDS011;16450;50.288;10.966;2023-12-20T11:49:57;6.60;;;2.40;;
29500;SDS011;16450;50.288;10.966;2023-12-20T11:53:02;7.57;;;2.30;;
29500;SDS011;16450;50.288;10.966;2023-12-20T11:56:07;6.57;;;2.27;;
29500;SDS011;16450;50.288;10.966;2023-12-20T11:59:10;8.00;;;2.30;;
29500;SDS011;16450;50.288;10.966;2023-12-20T12:02:23;4.90;;;2.07;;
29500;SDS011;16450;50.288;10.966;2023-12-20T12:05:26;3.30;;;2.03;;
29500;SDS011;16450;50.288;10.966;2023-12-20T12:08:28;6.70;;;2.00;;
29500;SDS011;16450;50.288;10.966;2023-12-20T12:11:29;3.90;;;1.93;;
29500;SDS011;16450;50.288;10.966;2023-12-20T12:14:31;9.97;;;2.10;;
29500;SDS011;16450;50.288;10.966;2023-12-20T12:17:34;6.83;;;1.90;;
29500;SDS011;16450;50.288;10.966;2023-12-20T12:20:37;11.37;;;2.40;;
29500;SDS011;16450;50.288;10.966;2023-12-20T12:23:39;6.80;;;2.10;;
29500;SDS011;16450;50.288;10.966;2023-12-20T12:26:41;5.17;;;2.17;;
29500;SDS011;16450;50.288;10.966;2023-12-20T12:30:04;6.30;;;2.17;;
29500;SDS011;16450;50.288;10.966;2023-12-20T12:33:11;8.87;;;2.50;;
29500;SDS011;16450;50.288;10.966;2023-12-20T12:36:14;4.80;;;2.20;;
29500;SDS011;16450;50.288;10.966;2023-12-20T12:39:18;11.90;;;2.87;;
29500;SDS011;16450;50.288;10.966;2023-12-20T12:42:21;9.70;;;2.40;;
29500;SDS011;16450;50.288;10.966;2023-12-20T12:45:23;4.87;;;2.30;;
29500;SDS011;16450;50.288;10.966;2023-12-20T12:48:26;6.80;;;2.00;;
29500;SDS011;16450;50.288;10.966;2023-12-20T12:51:29;10.37;;;1.83;;
29500;SDS011;16450;50.288;10.966;2023-12-20T12:54:31;5.07;;;1.80;;
29500;SDS011;16450;50.288;10.966;2023-12-20T12:57:33;11.00;;;2.10;;
29500;SDS011;16450;50.288;10.966;2023-12-20T13:00:35;7.17;;;2.07;;
29500;SDS011;16450;50.288;10.966;2023-12-20T13:03:37;8.60;;;2.37;;
29500;SDS011;16450;50.288;10.966;2023-12-20T13:06:39;8.57;;;2.13;;
29500;SDS011;16450;50.288;10.966;2023-12-20T13:09:43;8.43;;;2.07;;
29500;SDS011;16450;50.288;10.966;2023-12-20T13:12:45;5.30;;;2.23;;
29500;SDS011;16450;50.288;10.966;2023-12-20T13:15:47;9.53;;;2.17;;
29500;SDS011;16450;50.288;10.966;2023-12-20T13:18:54;7.90;;;2.50;;
29500;SDS011;16450;50.288;10.966;2023-12-20T13:21:56;7.23;;;2.10;;
29500;SDS011;16450;50.288;10.966;2023-12-20T13:24:59;6.47;;;2.40;;
29500;SDS011;16450;50.288;10.966;2023-12-20T13:28:02;8.77;;;2.17;;
29500;SDS011;16450;50.288;10.966;2023-12-20T13:31:05;10.40;;;2.60;;
29500;SDS011;16450;50.288;10.966;2023-12-20T13:34:07;8.20;;;2.60;;
29500;SDS011;16450;50.288;10.966;2023-12-20T13:37:09;5.87;;;2.33;;
29500;SDS011;16450;50.288;10.966;2023-12-20T13:40:11;6.60;;;2.17;;
29500;SDS011;16450;50.288;10.966;2023-12-20T13:43:13;7.43;;;2.40;;
29500;SDS011;16450;50.288;10.966;2023-12-20T13:46:15;8.40;;;2.40;;
29500;SDS011;16450;50.288;10.966;2023-12-20T13:49:18;8.40;;;2.20;;
29500;SDS011;16450;50.288;10.966;2023-12-20T13:52:20;9.07;;;2.57;;
29500;SDS011;16450;50.288;10.966;2023-12-20T13:55:22;8.53;;;2.60;;
29500;SDS011;16450;50.288;10.966;2023-12-20T13:58:26;10.47;;;3.27;;
29500;SDS011;16450;50.288;10.966;2023-12-20T14:01:28;6.33;;;2.70;;
29500;SDS011;16450;50.288;10.966;2023-12-20T14:04:31;7.17;;;2.90;;
29500;SDS011;16450;50.288;10.966;2023-12-20T14:07:44;7.93;;;3.03;;
29500;SDS011;16450;50.288;10.966;2023-12-20T14:10:47;11.63;;;2.90;;
29500;SDS011;16450;50.288;10.966;2023-12-20T14:13:50;6.87;;;3.10;;
29500;SDS011;16450;50.288;10.966;2023-12-20T14:16:51;7.77;;;2.70;;
29500;SDS011;16450;50.288;10.966;2023-12-20T14:19:53;8.73;;;2.80;;
29500;SDS011;16450;50.288;10.966;2023-12-20T14:22:56;14.70;;;3.07;;
29500;SDS011;16450;50.288;10.966;2023-12-20T14:25:58;8.93;;;2.60;;
29500;SDS011;16450;50.288;10.966;2023-12-20T14:29:00;8.63;;;2.60;;
29500;SDS011;16450;50.288;10.966;2023-12-20T14:32:01;10.13;;;2.73;;
29500;SDS011;16450;50.288;10.966;2023-12-20T14:35:05;6.70;;;2.50;;
29500;SDS011;16450;50.288;10.966;2023-12-20T14:38:08;8.50;;;2.93;;
29500;SDS011;16450;50.288;10.966;2023-12-20T14:41:09;12.87;;;2.70;;
29500;SDS011;16450;50.288;10.966;2023-12-20T14:44:12;10.93;;;2.60;;
29500;SDS011;16450;50.288;10.966;2023-12-20T14:47:13;7.67;;;2.40;;
29500;SDS011;16450;50.288;10.966;2023-12-20T14:50:16;11.50;;;2.90;;
29500;SDS011;16450;50.288;10.966;2023-12-20T14:53:20;9.07;;;2.60;;
29500;SDS011;16450;50.288;10.966;2023-12-20T14:56:24;6.60;;;2.67;;
29500;SDS011;16450;50.288;10.966;2023-12-20T14:59:27;8.00;;;2.80;;
29500;SDS011;16450;50.288;10.966;2023-12-20T15:02:29;8.03;;;2.80;;
29500;SDS011;16450;50.288;10.966;2023-12-20T15:05:32;7.90;;;3.13;;
29500;SDS011;16450;50.288;10.966;2023-12-20T15:08:34;9.23;;;2.60;;
29500;SDS011;16450;50.288;10.966;2023-12-20T15:11:36;6.70;;;2.73;;
29500;SDS011;16450;50.288;10.966;2023-12-20T15:14:38;6.80;;;2.37;;
29500;SDS011;16450;50.288;10.966;2023-12-20T15:17:40;4.33;;;2.50;;
29500;SDS011;16450;50.288;10.966;2023-12-20T15:20:42;9.63;;;2.87;;
29500;SDS011;16450;50.288;10.966;2023-12-20T15:23:46;9.13;;;3.87;;
29500;SDS011;16450;50.288;10.966;2023-12-20T15:26:54;9.40;;;3.83;;
29500;SDS011;16450;50.288;10.966;2023-12-20T15:29:59;7.30;;;3.20;;
29500;SDS011;16450;50.288;10.966;2023-12-20T15:33:01;8.13;;;2.90;;
29500;SDS011;16450;50.288;10.966;2023-12-20T15:36:08;8.70;;;3.00;;
29500;SDS011;16450;50.288;10.966;2023-12-20T15:39:09;10.23;;;3.00;;
29500;SDS011;16450;50.288;10.966;2023-12-20T15:42:16;8.67;;;3.13;;
29500;SDS011;16450;50.288;10.966;2023-12-20T15:45:18;9.83;;;3.07;;
29500;SDS011;16450;50.288;10.966;2023-12-20T15:48:19;8.40;;;3.37;;
29500;SDS011;16450;50.288;10.966;2023-12-20T15:51:22;10.73;;;3.70;;
29500;SDS011;16450;50.288;10.966;2023-12-20T15:54:24;9.83;;;3.43;;
29500;SDS011;16450;50.288;10.966;2023-12-20T15:57:26;14.93;;;3.33;;
29500;SDS011;16450;50.288;10.966;2023-12-20T16:00:38;11.63;;;2.60;;
29500;SDS011;16450;50.288;10.966;2023-12-20T16:03:40;6.57;;;3.10;;
29500;SDS011;16450;50.288;10.966;2023-12-20T16:06:53;11.07;;;2.80;;
29500;SDS011;16450;50.288;10.966;2023-12-20T16:09:56;9.37;;;3.27;;
29500;SDS011;16450;50.288;10.966;2023-12-20T16:12:58;7.10;;;2.67;;
29500;SDS011;16450;50.288;10.966;2023-12-20T16:16:03;7.10;;;2.90;;
29500;SDS011;16450;50.288;10.966;2023-12-20T16:19:07;6.23;;;2.93;;
29500;SDS011;16450;50.288;10.966;2023-12-20T16:22:08;8.73;;;3.13;;
29500;SDS011;16450;50.288;10.966;2023-12-20T16:25:11;8.67;;;3.00;;
29500;SDS011;16450;50.288;10.966;2023-12-20T16:28:13;7.40;;;2.67;;
29500;SDS011;16450;50.288;10.966;2023-12-20T16:31:15;8.67;;;3.67;;
29500;SDS011;16450;50.288;10.966;2023-12-20T16:34:18;11.47;;;3.40;;
29500;SDS011;16450;50.288;10.966;2023-12-20T16:37:19;10.30;;;3.83;;
29500;SDS011;16450;50.288;10.966;2023-12-20T16:40:21;9.97;;;3.50;;
29500;SDS011;16450;50.288;10.966;2023-12-20T16:43:26;11.53;;;3.60;;
29500;SDS011;16450;50.288;10.966;2023-12-20T16:46:28;11.57;;;3.80;;
29500;SDS011;16450;50.288;10.966;2023-12-20T16:49:30;7.10;;;3.43;;
29500;SDS011;16450;50.288;10.966;2023-12-20T16:52:32;10.90;;;3.63;;
29500;SDS011;16450;50.288;10.966;2023-12-20T16:55:34;12.30;;;4.20;;
29500;SDS011;16450;50.288;10.966;2023-12-20T16:58:37;9.30;;;3.90;;
29500;SDS011;16450;50.288;10.966;2023-12-20T17:01:39;11.13;;;4.17;;
29500;SDS011;16450;50.288;10.966;2023-12-20T17:04:45;10.27;;;3.90;;
29500;SDS011;16450;50.288;10.966;2023-12-20T17:07:47;9.83;;;3.80;;
29500;SDS011;16450;50.288;10.966;2023-12-20T17:10:49;8.80;;;4.17;;
29500;SDS011;16450;50.288;10.966;2023-12-20T17:13:51;16.20;;;4.60;;
29500;SDS011;16450;50.288;10.966;2023-12-20T17:16:53;12.60;;;4.50;;
29500;SDS011;16450;50.288;10.966;2023-12-20T17:19:55;12.00;;;4.70;;
29500;SDS011;16450;50.288;10.966;2023-12-20T17:22:57;13.73;;;4.50;;
29500;SDS011;16450;50.288;10.966;2023-12-20T17:26:00;14.10;;;4.20;;
29500;SDS011;16450;50.288;10.966;2023-12-20T17:29:02;10.03;;;4.17;;
29500;SDS011;16450;50.288;10.966;2023-12-20T17:32:04;11.40;;;4.70;;
29500;SDS011;16450;50.288;10.966;2023-12-20T17:35:06;9.33;;;4.10;;
29500;SDS011;16450;50.288;10.966;2023-12-20T17:38:08;10.83;;;3.97;;
29500;SDS011;16450;50.288;10.966;2023-12-20T17:41:11;12.97;;;4.93;;
29500;SDS011;16450;50.288;10.966;2023-12-20T17:44:12;9.30;;;3.80;;
29500;SDS011;16450;50.288;10.966;2023-12-20T17:47:16;9.40;;;4.53;;
29500;SDS011;16450;50.288;10.966;2023-12-20T17:50:18;9.10;;;4.30;;
29500;SDS011;16450;50.288;10.966;2023-12-20T17:53:21;12.10;;;5.50;;
29500;SDS011;16450;50.288;10.966;2023-12-20T17:56:23;11.63;;;5.73;;
29500;SDS011;16450;50.288;10.966;2023-12-20T17:59:25;12.70;;;5.40;;
29500;SDS011;16450;50.288;10.966;2023-12-20T18:02:26;10.97;;;5.33;;
29500;SDS011;16450;50.288;10.966;2023-12-20T18:05:28;11.57;;;4.43;;